Time;durP1;ratioP1;P1;durP2;ratioP2;P2;SDS_P1;SDS_P2;PMS_P1;PMS_P2;Temp;Humidity;BMP_temperature;BMP_pressure;BME280_temperature;BME280_humidity;BME280_pressure;Samples;Min_cycle;Max_cycle;Signal;HPM_P1;HPM_P2
2022/02/04 00:04:20;;;;;;;7.60;5.97;;;4.30;96.30;;;;;;5034874;28;20462;-80
2022/02/04 00:06:38;;;;;;;5.93;5.33;;;4.40;96.30;;;;;;5034865;28;20415;-80
2022/02/04 00:09:13;;;;;;;6.30;5.47;;;4.40;96.30;;;;;;5034858;28;20471;-81
2022/02/04 00:25:05;;;;;;;6.60;5.97;;;4.40;96.30;;;;;;5034067;28;20430;-81
2022/02/04 00:27:30;;;;;;;6.20;5.50;;;4.50;96.30;;;;;;5015888;28;20291;-80
2022/02/04 00:30:12;;;;;;;6.03;5.43;;;4.40;96.30;;;;;;5033523;28;20491;-81
2022/02/04 00:32:40;;;;;;;6.40;5.57;;;4.40;96.30;;;;;;5033743;28;20210;-81
2022/02/04 00:35:19;;;;;;;6.90;6.00;;;4.40;96.30;;;;;;5015361;28;20447;-80
2022/02/04 00:40:18;;;;;;;6.27;5.40;;;4.50;96.30;;;;;;5034124;28;20985;-81
2022/02/04 00:42:44;;;;;;;7.10;6.10;;;4.50;96.30;;;;;;5016189;28;20411;-81
2022/02/04 00:45:18;;;;;;;7.27;6.57;;;4.50;96.30;;;;;;5016014;28;20426;-81
2022/02/04 00:47:50;;;;;;;7.20;5.70;;;4.50;96.30;;;;;;5015780;28;20196;-81
2022/02/04 00:50:28;;;;;;;4.60;3.60;;;4.40;96.30;;;;;;5015932;28;20407;-80
2022/02/04 00:53:14;;;;;;;7.63;6.20;;;4.50;96.30;;;;;;5033569;28;20391;-81
2022/02/04 00:55:47;;;;;;;7.83;5.40;;;4.50;96.30;;;;;;5033891;28;20806;-81
2022/02/04 05:29:51;;;;;;;6.37;1.80;;;2.80;96.30;;;;;;5076580;28;20941;-80
2022/02/04 11:31:14;;;;;;;1.30;0.90;;;6.20;96.30;;;;;;5028338;28;20431;-80
2022/02/04 11:49:27;;;;;;;1.53;0.87;;;5.20;96.30;;;;;;5016372;28;20507;-80
2022/02/04 11:57:18;;;;;;;1.60;1.40;;;5.20;96.30;;;;;;5014695;28;20399;-80
2022/02/04 11:59:49;;;;;;;1.67;0.70;;;5.20;96.30;;;;;;5014739;28;20443;-79
2022/02/04 12:02:31;;;;;;;1.83;1.10;;;5.30;96.30;;;;;;5015455;28;20431;-79
2022/02/04 12:07:35;;;;;;;1.20;0.87;;;5.30;96.30;;;;;;5016475;28;20416;-80
2022/02/04 12:10:02;;;;;;;1.60;0.80;;;5.30;96.30;;;;;;5015824;28;20458;-80
2022/02/04 12:12:52;;;;;;;3.10;0.80;;;5.40;96.30;;;;;;5015811;28;20452;-80
2022/02/04 12:15:30;;;;;;;0.80;0.60;;;5.40;96.30;;;;;;5013950;28;20433;-79
2022/02/04 12:18:00;;;;;;;1.00;0.80;;;5.60;96.30;;;;;;5013164;28;20782;-79
2022/02/04 12:20:46;;;;;;;1.23;1.00;;;5.70;96.30;;;;;;5013894;28;20431;-79
2022/02/04 12:23:35;;;;;;;2.77;0.83;;;5.70;96.30;;;;;;5015529;28;20412;-80
2022/02/04 12:26:04;;;;;;;1.30;1.00;;;5.50;96.30;;;;;;5014004;28;20419;-80
2022/02/04 12:28:59;;;;;;;1.73;0.70;;;5.50;96.30;;;;;;5013292;28;20550;-80
2022/02/04 12:31:30;;;;;;;1.10;0.90;;;5.40;96.30;;;;;;5012344;28;20482;-80
2022/02/04 12:34:15;;;;;;;1.00;0.80;;;5.40;96.30;;;;;;5012580;28;20404;-80
2022/02/04 12:36:57;;;;;;;0.90;0.70;;;5.40;96.30;;;;;;4998891;28;20899;-80
2022/02/04 12:39:26;;;;;;;1.10;0.80;;;5.50;96.30;;;;;;4993602;28;20416;-80
2022/02/04 12:41:52;;;;;;;1.20;0.93;;;5.60;96.30;;;;;;4994397;28;20429;-80
2022/02/04 12:44:21;;;;;;;2.70;0.80;;;5.60;96.30;;;;;;4992793;28;20451;-80
2022/02/04 12:47:01;;;;;;;1.00;0.80;;;5.60;96.30;;;;;;4993303;28;20408;-80
2022/02/04 12:49:29;;;;;;;1.30;0.90;;;5.50;96.30;;;;;;4993606;28;20464;-79
2022/02/04 12:54:46;;;;;;;1.10;0.93;;;5.60;96.30;;;;;;4992735;28;20424;-79
2022/02/04 13:02:46;;;;;;;1.00;0.80;;;5.60;96.30;;;;;;4996053;28;21179;-80
2022/02/04 13:08:14;;;;;;;1.03;0.83;;;5.20;96.30;;;;;;4995263;28;20400;-77
2022/02/04 13:10:40;;;;;;;1.77;0.90;;;5.20;96.30;;;;;;4996363;28;20482;-78
2022/02/04 13:13:11;;;;;;;1.33;0.97;;;5.30;96.30;;;;;;4996399;28;20781;-78
2022/02/04 13:15:38;;;;;;;1.00;0.80;;;5.20;96.30;;;;;;4995084;28;20791;-78
2022/02/04 13:18:06;;;;;;;1.80;1.03;;;5.10;96.30;;;;;;4994935;28;20424;-78
2022/02/04 13:20:32;;;;;;;1.00;0.90;;;5.10;96.30;;;;;;4994830;28;20444;-78
2022/02/04 13:23:03;;;;;;;3.00;1.00;;;5.10;96.30;;;;;;4996018;28;20417;-78
2022/02/04 13:25:33;;;;;;;1.40;1.07;;;5.00;96.30;;;;;;4995714;28;20192;-78
2022/02/04 13:28:11;;;;;;;1.40;1.00;;;5.00;96.30;;;;;;4995749;28;20523;-78
2022/02/04 13:30:41;;;;;;;1.10;0.90;;;5.00;96.30;;;;;;4995981;28;20441;-78
2022/02/04 13:33:19;;;;;;;1.03;0.80;;;5.10;96.30;;;;;;4994617;28;20428;-78
2022/02/04 13:35:55;;;;;;;1.30;0.83;;;4.90;96.30;;;;;;5002904;28;20415;-78
2022/02/04 13:38:41;;;;;;;1.00;0.70;;;4.90;96.30;;;;;;5015678;28;20462;-78
2022/02/04 13:41:23;;;;;;;1.00;0.80;;;4.90;96.30;;;;;;5015259;28;20519;-78
2022/02/04 13:44:21;;;;;;;1.10;0.90;;;4.90;96.30;;;;;;5015401;28;20415;-78
2022/02/04 13:46:53;;;;;;;1.93;1.10;;;4.90;96.30;;;;;;5013884;28;20418;-78
2022/02/04 13:49:42;;;;;;;1.10;0.90;;;4.90;96.30;;;;;;5013819;28;20470;-78
2022/02/04 13:57:32;;;;;;;1.50;1.10;;;4.90;96.30;;;;;;5014977;28;20811;-78
2022/02/04 14:02:49;;;;;;;1.10;1.00;;;5.00;96.30;;;;;;5015120;28;20400;-78
2022/02/04 14:05:34;;;;;;;1.10;0.97;;;4.90;96.30;;;;;;5014604;28;20965;-78
2022/02/04 14:08:09;;;;;;;2.30;1.10;;;4.90;96.30;;;;;;5014844;28;20474;-78
2022/02/04 14:10:41;;;;;;;1.30;1.10;;;5.00;96.30;;;;;;5014654;28;20427;-78
2022/02/04 14:13:12;;;;;;;1.60;1.03;;;4.90;96.30;;;;;;5013458;28;20511;-78
2022/02/04 14:15:41;;;;;;;1.40;1.00;;;4.90;96.30;;;;;;5014481;28;20408;-77
2022/02/04 14:18:09;;;;;;;1.77;0.93;;;4.90;96.30;;;;;;5014375;28;20412;-78
2022/02/04 14:20:38;;;;;;;4.00;1.67;;;4.90;96.30;;;;;;5014577;28;20941;-78
2022/02/04 14:23:06;;;;;;;9.53;6.70;;;4.90;96.30;;;;;;5014536;28;20450;-78
2022/02/04 14:25:42;;;;;;;1.80;1.20;;;5.00;96.30;;;;;;5014210;28;20454;-78
2022/02/04 14:28:11;;;;;;;1.60;1.07;;;5.00;96.30;;;;;;5014338;28;20471;-78
2022/02/04 14:30:37;;;;;;;1.07;0.97;;;5.10;96.30;;;;;;5014344;28;20481;-78
2022/02/04 14:33:14;;;;;;;0.90;0.80;;;5.00;96.30;;;;;;5013049;28;20781;-77
2022/02/04 14:36:06;;;;;;;1.47;1.00;;;5.10;96.30;;;;;;5006063;28;20440;-78
2022/02/04 14:50:04;;;;;;;1.10;0.80;;;5.00;96.30;;;;;;4994995;28;20464;-77
2022/02/04 15:00:35;;;;;;;0.90;0.70;;;4.90;96.30;;;;;;4995561;28;20435;-78
2022/02/04 15:05:47;;;;;;;1.83;0.80;;;5.00;96.30;;;;;;4994504;28;20482;-77
2022/02/04 15:08:16;;;;;;;0.93;0.83;;;4.90;96.30;;;;;;4994288;28;20448;-77
2022/02/04 15:10:45;;;;;;;0.90;0.63;;;4.90;96.30;;;;;;4992625;28;20484;-77
2022/02/04 15:13:13;;;;;;;1.13;0.60;;;4.90;96.30;;;;;;4992708;28;20417;-76
2022/02/04 15:15:39;;;;;;;1.07;0.90;;;4.90;96.30;;;;;;4992481;28;20987;-76
2022/02/04 15:18:05;;;;;;;0.90;0.77;;;4.90;96.30;;;;;;5011121;28;20906;-76
2022/02/04 15:20:31;;;;;;;1.10;0.80;;;4.90;96.30;;;;;;5013855;28;20436;-77
2022/02/04 15:22:57;;;;;;;1.20;0.80;;;4.90;96.30;;;;;;5012598;28;20235;-76
2022/02/04 15:25:23;;;;;;;0.90;0.70;;;4.80;96.30;;;;;;5013034;28;20656;-76
2022/02/04 15:28:57;;;;;;;1.13;0.93;;;4.80;96.30;;;;;;5012062;28;20196;-77
2022/02/04 15:30:48;;;;;;;1.33;0.70;;;4.70;96.30;;;;;;5003266;28;20963;-78
2022/02/04 15:33:14;;;;;;;2.33;1.53;;;4.70;96.30;;;;;;5011956;28;20841;-77
2022/02/04 15:35:40;;;;;;;4.00;2.23;;;;;;;;;;5006185;28;20427;-76
2022/02/04 15:38:06;;;;;;;1.63;0.97;;;4.80;96.30;;;;;;4993390;28;20182;-76
2022/02/04 15:40:32;;;;;;;1.60;1.23;;;4.70;96.30;;;;;;4994977;28;20197;-78
2022/02/04 15:43:01;;;;;;;1.10;0.80;;;4.70;96.30;;;;;;5011768;28;20510;-77
2022/02/04 15:45:59;;;;;;;1.10;0.90;;;4.70;96.30;;;;;;5011807;28;20215;-77
2022/02/04 15:48:34;;;;;;;1.20;0.80;;;4.80;96.30;;;;;;5012432;28;20467;-77
2022/02/04 15:56:48;;;;;;;1.80;1.10;;;4.70;96.30;;;;;;5012656;28;20481;-77
2022/02/04 15:59:42;;;;;;;0.93;0.70;;;4.60;96.30;;;;;;4993343;28;20237;-77
2022/02/04 16:02:31;;;;;;;1.00;0.70;;;4.60;96.30;;;;;;5008283;28;20436;-77
2022/02/04 16:04:57;;;;;;;1.00;0.80;;;4.70;96.30;;;;;;4991870;28;20421;-77
2022/02/04 16:07:24;;;;;;;0.90;0.80;;;4.70;96.30;;;;;;4993409;28;20943;-77
2022/02/04 16:09:58;;;;;;;0.90;0.70;;;4.70;96.30;;;;;;5008289;28;20201;-79
2022/02/04 16:12:29;;;;;;;1.03;0.60;;;4.70;96.30;;;;;;5008295;28;20441;-78
2022/02/04 16:17:32;;;;;;;1.13;0.87;;;4.60;96.30;;;;;;4993549;28;20479;-80
2022/02/04 16:20:24;;;;;;;1.87;1.00;;;4.50;96.30;;;;;;5008205;28;20420;-78
2022/02/04 16:23:03;;;;;;;1.83;0.80;;;4.50;96.30;;;;;;4991826;28;20496;-78
2022/02/04 16:25:58;;;;;;;1.00;0.77;;;4.40;96.30;;;;;;5002175;28;20459;-78
2022/02/04 16:28:40;;;;;;;2.37;1.80;;;4.40;96.30;;;;;;5011387;28;20514;-78
2022/02/04 16:31:07;;;;;;;2.57;2.27;;;4.50;96.30;;;;;;5011814;28;20993;-78
2022/02/04 16:33:33;;;;;;;2.27;1.40;;;4.40;96.30;;;;;;5011864;28;20418;-78
2022/02/04 16:36:11;;;;;;;5.83;3.43;;;4.40;96.30;;;;;;5003035;28;20946;-79
2022/02/04 16:38:37;;;;;;;3.73;3.33;;;4.30;96.30;;;;;;4996436;28;20434;-79
2022/02/04 16:41:06;;;;;;;3.10;2.40;;;4.20;96.30;;;;;;5012376;28;20439;-79
2022/02/04 16:43:35;;;;;;;3.30;2.17;;;4.30;96.30;;;;;;5016476;28;20172;-78
2022/02/04 16:46:05;;;;;;;2.90;2.27;;;4.30;96.30;;;;;;5028235;28;20430;-79
2022/02/04 16:48:31;;;;;;;4.53;3.40;;;4.20;96.30;;;;;;5034912;28;20508;-79
2022/02/04 16:50:57;;;;;;;3.60;3.23;;;4.20;96.30;;;;;;5034983;28;20431;-78
2022/02/04 16:53:22;;;;;;;1.47;1.37;;;4.10;96.30;;;;;;5035251;28;20173;-79
2022/02/04 16:55:47;;;;;;;2.73;1.20;;;4.20;96.30;;;;;;5034495;28;20168;-79
2022/02/04 16:58:14;;;;;;;1.77;1.43;;;4.30;96.30;;;;;;5031851;28;20173;-78
2022/02/04 17:00:39;;;;;;;0.90;0.70;;;4.30;96.30;;;;;;5015606;28;20197;-79
2022/02/04 17:03:09;;;;;;;0.83;0.60;;;4.20;96.30;;;;;;5019673;28;20423;-77
2022/02/04 17:06:00;;;;;;;1.37;0.77;;;4.20;96.30;;;;;;5021837;28;20664;-76
2022/02/04 17:08:35;;;;;;;0.90;0.80;;;4.30;96.30;;;;;;5015767;28;20451;-76
2022/02/04 17:11:03;;;;;;;1.80;1.60;;;4.30;96.30;;;;;;5014454;28;20427;-76
2022/02/04 17:13:30;;;;;;;1.10;0.80;;;4.30;96.30;;;;;;5011854;28;20415;-76
2022/02/04 17:15:56;;;;;;;0.93;0.70;;;4.30;96.30;;;;;;5009377;28;20568;-76
2022/02/04 17:18:22;;;;;;;1.00;0.80;;;4.30;96.30;;;;;;5006952;28;20412;-76
2022/02/04 17:20:48;;;;;;;0.87;0.60;;;4.30;96.30;;;;;;5002592;28;20463;-75
2022/02/04 17:23:20;;;;;;;2.40;0.70;;;4.30;96.30;;;;;;4995639;28;20178;-76
2022/02/04 17:25:46;;;;;;;0.90;0.60;;;4.30;96.30;;;;;;5009297;28;20438;-75
2022/02/04 17:28:11;;;;;;;1.10;0.60;;;4.30;96.30;;;;;;5006738;28;20483;-75
2022/02/04 17:30:37;;;;;;;1.00;0.80;;;4.30;96.30;;;;;;5005365;28;20455;-75
2022/02/04 17:33:03;;;;;;;1.57;0.90;;;4.30;96.30;;;;;;5015192;28;20224;-75
2022/02/04 17:35:29;;;;;;;13.07;8.60;;;4.20;96.30;;;;;;5007611;28;20173;-76
2022/02/04 17:37:57;;;;;;;2.60;2.13;;;4.20;96.30;;;;;;5013810;28;20424;-75
2022/02/04 17:40:26;;;;;;;2.07;0.97;;;4.10;96.30;;;;;;5009400;28;20173;-75
2022/02/04 17:42:51;;;;;;;0.90;0.60;;;4.20;96.30;;;;;;4998193;28;20783;-76
2022/02/04 17:45:21;;;;;;;0.97;0.70;;;4.20;96.30;;;;;;5019200;28;20404;-76
2022/02/04 17:47:58;;;;;;;1.10;0.80;;;4.10;96.30;;;;;;5012339;28;20223;-75
2022/02/04 17:50:30;;;;;;;1.17;0.80;;;4.10;96.30;;;;;;5008546;28;20451;-75
2022/02/04 17:53:05;;;;;;;1.93;0.80;;;4.10;96.30;;;;;;5002665;28;20436;-75
2022/02/04 17:55:38;;;;;;;1.20;1.00;;;4.10;96.30;;;;;;5013827;28;20522;-75
2022/02/04 17:58:24;;;;;;;1.00;0.80;;;4.10;96.30;;;;;;4999414;28;20436;-74
2022/02/04 18:01:00;;;;;;;1.17;0.90;;;4.00;96.30;;;;;;5012939;28;21638;-76
2022/02/04 18:08:23;;;;;;;2.67;1.70;;;3.80;96.30;;;;;;4996952;28;20867;-75
2022/02/04 18:10:48;;;;;;;3.27;2.13;;;3.70;96.30;;;;;;4998548;28;20543;-79
2022/02/04 18:13:14;;;;;;;1.90;0.80;;;3.80;96.30;;;;;;5009906;28;20492;-76
2022/02/04 18:15:41;;;;;;;1.37;1.10;;;3.80;96.30;;;;;;4995148;28;20189;-76
2022/02/04 18:18:08;;;;;;;1.30;1.20;;;3.70;96.30;;;;;;5005394;28;20177;-75
2022/02/04 18:20:34;;;;;;;1.40;1.17;;;3.70;96.30;;;;;;5022276;28;20799;-76
2022/02/04 18:22:59;;;;;;;1.00;0.83;;;3.70;96.30;;;;;;5015126;28;20520;-75
2022/02/04 18:25:25;;;;;;;1.60;1.20;;;3.70;96.30;;;;;;5016832;28;20165;-75
2022/02/04 18:27:51;;;;;;;1.10;0.90;;;;;;;;;;5013958;28;20200;-76
2022/02/04 18:30:18;;;;;;;2.53;2.07;;;3.80;96.30;;;;;;5013493;28;20303;-76
2022/02/04 18:32:47;;;;;;;2.43;2.23;;;3.70;96.30;;;;;;5006934;28;20417;-76
2022/02/04 18:35:17;;;;;;;1.37;1.10;;;3.60;96.30;;;;;;4995381;28;20417;-76
2022/02/04 18:37:50;;;;;;;1.77;1.00;;;3.70;96.30;;;;;;4995005;28;20405;-76
2022/02/04 19:00:45;;;;;;;3.57;2.50;;;3.60;96.30;;;;;;5024198;28;20518;-78
2022/02/04 19:03:17;;;;;;;1.80;1.00;;;3.70;96.30;;;;;;5031453;28;20411;-77
2022/02/04 19:05:56;;;;;;;1.50;1.00;;;3.60;96.30;;;;;;5014592;28;20780;-77
2022/02/04 19:08:28;;;;;;;4.60;3.23;;;3.70;96.30;;;;;;5031631;28;20457;-78
2022/02/04 19:10:53;;;;;;;3.60;2.20;;;3.80;96.30;;;;;;5015173;28;20453;-77
2022/02/04 19:13:23;;;;;;;2.17;1.03;;;3.80;96.30;;;;;;5015693;28;20450;-76
2022/02/04 19:16:05;;;;;;;0.90;0.73;;;3.90;96.30;;;;;;5011938;28;20188;-76
2022/02/04 19:18:46;;;;;;;1.93;1.20;;;4.00;96.30;;;;;;4995959;28;20439;-78
2022/02/04 19:21:19;;;;;;;1.00;0.80;;;4.00;96.30;;;;;;5012034;28;20423;-78
2022/02/04 19:23:49;;;;;;;1.23;1.13;;;4.10;96.30;;;;;;5013524;28;20423;-78
2022/02/04 19:26:19;;;;;;;1.37;1.27;;;4.10;96.30;;;;;;4998871;28;20561;-76
2022/02/04 19:28:45;;;;;;;1.40;1.10;;;4.00;96.30;;;;;;5032856;28;20458;-80
2022/02/04 19:31:12;;;;;;;1.30;0.73;;;4.00;96.30;;;;;;5015089;28;20787;-80
2022/02/04 19:33:37;;;;;;;1.50;1.20;;;3.90;96.30;;;;;;5012746;28;20187;-79
2022/02/04 19:36:03;;;;;;;1.30;0.80;;;3.80;96.30;;;;;;5014590;28;20416;-77
2022/02/04 19:38:28;;;;;;;1.00;0.80;;;4.00;96.30;;;;;;5032437;28;20241;-77
2022/02/04 19:40:55;;;;;;;1.97;0.80;;;4.00;96.30;;;;;;5015823;28;20550;-77
2022/02/04 19:43:23;;;;;;;2.07;1.00;;;4.00;96.30;;;;;;5043327;28;20172;-76
2022/02/04 19:46:03;;;;;;;1.50;1.20;;;3.90;96.30;;;;;;5051109;28;20414;-77
2022/02/04 19:48:33;;;;;;;1.30;0.87;;;4.00;96.30;;;;;;5040842;28;20463;-82
2022/02/04 19:53:59;;;;;;;1.30;0.70;;;4.10;96.30;;;;;;5032986;28;20808;-79
2022/02/04 20:07:37;;;;;;;2.23;0.80;;;4.20;96.30;;;;;;5012835;28;20395;-78
2022/02/04 20:13:43;;;;;;;1.13;0.90;;;;;;;;;;5013018;28;20414;-79
2022/02/04 20:16:46;;;;;;;1.13;0.90;;;4.30;96.30;;;;;;5022456;28;20919;-78
2022/02/04 20:23:34;;;;;;;1.20;0.60;;;4.40;96.30;;;;;;5031717;28;20439;-79
2022/02/04 20:24:07;;;;;;;1.10;0.80;;;4.40;96.30;;;;;;5032313;28;20486;-79
2022/02/04 20:26:33;;;;;;;5.80;0.80;;;4.40;96.30;;;;;;5014112;28;20814;-78
2022/02/04 20:28:58;;;;;;;1.10;0.70;;;4.40;96.30;;;;;;5014284;28;20509;-77
2022/02/04 20:31:24;;;;;;;1.20;0.80;;;4.30;96.30;;;;;;5014491;28;20211;-79
2022/02/04 20:33:49;;;;;;;1.10;0.90;;;4.30;96.30;;;;;;5032268;28;20176;-78
2022/02/04 20:36:15;;;;;;;2.90;1.00;;;4.30;96.30;;;;;;5020016;28;20216;-79
2022/02/04 20:38:50;;;;;;;1.63;1.40;;;4.30;96.30;;;;;;5012316;28;20199;-79
2022/02/04 20:41:22;;;;;;;1.00;0.60;;;4.50;96.30;;;;;;5027343;28;20187;-79
2022/02/04 20:43:48;;;;;;;1.37;0.80;;;4.50;96.30;;;;;;5012316;28;20396;-79
2022/02/04 20:46:13;;;;;;;1.10;0.60;;;4.60;96.30;;;;;;5026860;28;20450;-78
2022/02/04 20:48:39;;;;;;;1.80;0.70;;;4.60;96.30;;;;;;4994501;28;20672;-79
2022/02/04 20:51:07;;;;;;;1.63;0.60;;;4.60;96.30;;;;;;4994800;28;20169;-78
2022/02/04 20:53:34;;;;;;;1.33;0.87;;;4.60;96.30;;;;;;4994620;28;20729;-78
2022/02/04 20:55:59;;;;;;;0.80;0.50;;;4.60;96.30;;;;;;5011744;28;20408;-78
2022/02/04 20:58:25;;;;;;;1.33;0.63;;;4.60;96.30;;;;;;5027199;28;20442;-79
2022/02/04 21:00:52;;;;;;;1.40;0.80;;;4.60;96.30;;;;;;5012049;28;20172;-79
2022/02/04 21:03:18;;;;;;;1.47;0.77;;;4.60;96.30;;;;;;5027164;28;20416;-79
2022/02/04 21:06:00;;;;;;;1.00;0.70;;;4.60;96.30;;;;;;5024728;28;20833;-78
2022/02/04 23:06:58;;;;;;;0.90;0.60;;;2.00;96.30;;;;;;5034177;28;20457;-75
2022/02/04 23:09:31;;;;;;;0.90;0.40;;;2.00;96.30;;;;;;5033199;28;20468;-75
2022/02/04 23:11:57;;;;;;;1.07;0.57;;;2.00;96.30;;;;;;5033607;28;20746;-75
2022/02/04 23:14:31;;;;;;;2.33;0.60;;;2.00;96.30;;;;;;5033173;28;20399;-75
2022/02/04 23:17:09;;;;;;;0.80;0.60;;;2.00;96.30;;;;;;5033481;28;20148;-75
2022/02/04 23:22:09;;;;;;;0.77;0.40;;;1.90;96.30;;;;;;5033624;28;20549;-77
2022/02/04 23:24:43;;;;;;;0.80;0.50;;;1.90;96.30;;;;;;5032991;28;20457;-79
2022/02/04 23:27:13;;;;;;;1.87;0.50;;;1.90;96.30;;;;;;5015561;28;20406;-78
2022/02/04 23:51:25;;;;;;;1.37;0.60;;;1.60;96.30;;;;;;5032763;28;20434;-80
2022/02/04 23:53:50;;;;;;;0.77;0.43;;;1.50;96.30;;;;;;5033082;28;20826;-79
2022/02/04 23:56:16;;;;;;;2.23;0.60;;;1.50;96.30;;;;;;5027892;28;20218;-78
